createdAt,value
2022-09-13T00:01:31.763Z,2.83
2022-09-13T00:03:59.679Z,2.80
2022-09-13T00:06:26.131Z,3.10
2022-09-13T00:08:54.323Z,3.10
2022-09-13T00:11:25.987Z,2.97
2022-09-13T00:13:53.444Z,3.10
2022-09-13T00:16:21.117Z,3.40
2022-09-13T00:18:48.180Z,2.80
2022-09-13T00:21:16.502Z,2.97
2022-09-13T00:23:48.342Z,3.23
2022-09-13T00:26:19.643Z,2.93
2022-09-13T00:28:51.490Z,2.90
2022-09-13T00:31:18.616Z,2.83
2022-09-13T00:33:45.088Z,2.50
2022-09-13T00:36:12.206Z,2.63
2022-09-13T00:38:39.827Z,2.93
2022-09-13T00:41:10.127Z,2.70
2022-09-13T00:43:46.078Z,2.80
2022-09-13T00:46:25.690Z,2.70
2022-09-13T00:48:57.006Z,2.80
2022-09-13T00:51:23.579Z,2.50
2022-09-13T00:53:52.829Z,2.80
2022-09-13T00:56:25.535Z,2.80
2022-09-13T00:58:59.769Z,2.87
2022-09-13T01:01:30.091Z,2.83
2022-09-13T01:03:56.707Z,2.70
2022-09-13T01:06:25.341Z,2.63
2022-09-13T01:08:53.709Z,2.50
2022-09-13T01:11:55.567Z,2.60
2022-09-13T01:14:23.097Z,3.20
2022-09-13T01:16:50.129Z,2.93
2022-09-13T01:19:17.685Z,2.83
2022-09-13T01:22:25.724Z,2.73
2022-09-13T01:25:00.723Z,2.70
2022-09-13T01:27:30.350Z,3.00
2022-09-13T01:30:08.757Z,2.70
2022-09-13T01:32:38.089Z,2.50
2022-09-13T01:35:38.695Z,2.70
2022-09-13T01:38:18.610Z,2.30
2022-09-13T01:41:06.363Z,2.60
2022-09-13T01:43:40.827Z,2.60
2022-09-13T01:46:18.030Z,2.60
2022-09-13T01:49:23.345Z,2.83
2022-09-13T01:51:55.529Z,3.20
2022-09-13T01:54:47.513Z,3.00
2022-09-13T01:57:22.039Z,3.13
2022-09-13T01:59:59.787Z,3.10
2022-09-13T02:02:32.356Z,2.90
2022-09-13T02:05:04.839Z,3.40
2022-09-13T02:07:42.276Z,2.93
2022-09-13T02:10:17.530Z,2.90
2022-09-13T02:12:45.947Z,3.00
2022-09-13T02:15:26.164Z,2.80
2022-09-13T02:18:02.812Z,2.30
2022-09-13T02:20:33.059Z,2.60
2022-09-13T02:23:03.500Z,2.87
2022-09-13T02:25:32.915Z,2.57
2022-09-13T02:28:03.006Z,2.33
2022-09-13T02:30:33.057Z,2.80
2022-09-13T02:33:04.483Z,2.87
2022-09-13T02:35:52.326Z,2.50
2022-09-13T02:38:31.706Z,2.17
2022-09-13T02:41:02.239Z,2.70
2022-09-13T02:43:35.697Z,2.70
2022-09-13T02:46:20.283Z,2.87
2022-09-13T02:49:09.478Z,2.70
2022-09-13T02:52:03.822Z,2.80
2022-09-13T02:54:36.165Z,2.40
2022-09-13T02:57:08.232Z,2.90
2022-09-13T02:59:34.663Z,2.70
2022-09-13T03:02:10.995Z,2.40
2022-09-13T03:04:37.481Z,2.73
2022-09-13T03:07:05.974Z,2.70
2022-09-13T03:09:32.921Z,2.63
2022-09-13T03:12:05.527Z,2.30
2022-09-13T03:14:53.510Z,2.87
2022-09-13T03:18:21.833Z,2.60
2022-09-13T03:21:01.391Z,2.67
2022-09-13T03:23:49.692Z,2.40
2022-09-13T03:26:27.599Z,2.40
2022-09-13T03:29:09.337Z,2.67
2022-09-13T03:31:43.666Z,2.63
2022-09-13T03:34:22.171Z,2.23
2022-09-13T03:37:04.039Z,2.43
2022-09-13T03:39:54.578Z,2.53
2022-09-13T03:42:31.194Z,2.20
2022-09-13T03:44:58.308Z,2.60
2022-09-13T03:47:29.107Z,2.60
2022-09-13T03:49:56.564Z,2.20
2022-09-13T03:52:23.247Z,2.40
2022-09-13T03:54:49.692Z,2.63
2022-09-13T03:57:21.172Z,2.53
2022-09-13T03:59:50.556Z,2.50
2022-09-13T04:02:17.278Z,2.60
2022-09-13T04:04:44.771Z,2.67
2022-09-13T04:07:13.738Z,2.30
2022-09-13T04:09:40.389Z,2.27
2022-09-13T04:12:07.388Z,2.57
2022-09-13T04:14:33.935Z,2.27
2022-09-13T04:17:00.510Z,2.50
2022-09-13T04:19:27.156Z,2.40
2022-09-13T04:21:55.616Z,2.50
2022-09-13T04:24:27.028Z,2.50
2022-09-13T04:26:54.562Z,2.60
2022-09-13T04:29:22.075Z,2.47
2022-09-13T04:31:50.064Z,2.30
2022-09-13T04:34:18.819Z,2.57
2022-09-13T04:36:46.124Z,2.13
2022-09-13T04:39:16.025Z,2.40
2022-09-13T04:41:44.930Z,2.30
2022-09-13T04:44:11.968Z,2.17
2022-09-13T04:46:38.687Z,1.90
2022-09-13T04:49:05.123Z,2.20
2022-09-13T04:51:31.671Z,2.43
2022-09-13T04:53:58.234Z,2.60
2022-09-13T04:56:24.954Z,2.57
2022-09-13T04:58:51.987Z,2.23
2022-09-13T05:01:18.709Z,2.43
2022-09-13T05:03:45.278Z,2.40
2022-09-13T05:06:13.429Z,2.43
2022-09-13T05:08:39.999Z,2.30
2022-09-13T05:11:07.514Z,2.20
2022-09-13T05:13:34.355Z,2.60
2022-09-13T05:16:03.778Z,2.37
2022-09-13T05:18:32.218Z,2.97
2022-09-13T05:21:00.420Z,2.60
2022-09-13T05:23:28.554Z,2.77
2022-09-13T05:25:55.964Z,2.30
2022-09-13T05:28:23.011Z,2.53
2022-09-13T05:30:57.888Z,3.60
2022-09-13T05:33:25.824Z,2.00
2022-09-13T05:35:52.347Z,2.50
2022-09-13T05:38:18.885Z,2.57
2022-09-13T05:40:45.681Z,2.30
2022-09-13T05:43:13.136Z,2.60
2022-09-13T05:45:40.318Z,2.73
2022-09-13T05:48:06.937Z,2.40
2022-09-13T05:50:57.190Z,2.47
2022-09-13T05:53:23.939Z,2.30
2022-09-13T05:55:50.420Z,2.30
2022-09-13T05:58:16.802Z,2.70
2022-09-13T06:00:43.405Z,2.27
2022-09-13T06:03:09.918Z,2.53
2022-09-13T06:05:36.330Z,2.60
2022-09-13T06:08:03.015Z,2.70
2022-09-13T06:10:29.462Z,2.73
2022-09-13T06:12:55.964Z,2.63
2022-09-13T06:15:22.463Z,2.83
2022-09-13T06:17:48.854Z,2.53
2022-09-13T06:20:15.593Z,3.10
2022-09-13T06:22:42.081Z,2.60
2022-09-13T06:25:09.486Z,2.77
2022-09-13T06:27:36.107Z,2.50
2022-09-13T06:30:02.739Z,2.10
2022-09-13T06:32:29.231Z,2.57
2022-09-13T06:34:55.713Z,2.83
2022-09-13T06:37:22.128Z,3.10
2022-09-13T06:39:48.730Z,2.53
2022-09-13T06:42:15.277Z,2.70
2022-09-13T06:44:41.738Z,2.53
2022-09-13T06:47:08.418Z,2.70
2022-09-13T06:49:34.901Z,2.90
2022-09-13T06:52:01.581Z,2.50
2022-09-13T06:54:28.080Z,2.90
2022-09-13T06:56:54.601Z,2.50
2022-09-13T06:59:21.381Z,3.10
2022-09-13T07:01:48.091Z,3.10
2022-09-13T07:04:16.470Z,2.87
2022-09-13T07:06:46.951Z,2.87
2022-09-13T07:09:19.200Z,3.60
2022-09-13T07:11:47.159Z,3.23
2022-09-13T07:14:19.098Z,3.13
2022-09-13T07:16:46.738Z,3.47
2022-09-13T07:19:18.268Z,4.00
2022-09-13T07:21:45.165Z,3.93
2022-09-13T07:24:12.136Z,3.53
2022-09-13T07:26:38.957Z,5.03
2022-09-13T07:29:08.705Z,4.30
2022-09-13T07:31:37.681Z,3.10
2022-09-13T07:34:06.257Z,2.83
2022-09-13T07:36:34.160Z,3.80
2022-09-13T07:39:01.833Z,3.20
2022-09-13T07:41:29.562Z,3.27
2022-09-13T07:43:56.229Z,2.80
2022-09-13T07:46:24.797Z,3.17
2022-09-13T07:48:56.680Z,12.77
2022-09-13T07:51:31.052Z,3.10
2022-09-13T07:53:59.421Z,2.83
2022-09-13T07:56:30.328Z,3.23
2022-09-13T07:59:00.815Z,2.90
2022-09-13T08:01:35.434Z,2.77
2022-09-13T08:04:04.413Z,3.00
2022-09-13T08:06:32.514Z,2.90
2022-09-13T08:08:59.012Z,7.23
2022-09-13T08:11:25.478Z,3.83
2022-09-13T08:13:52.512Z,3.00
2022-09-13T08:16:21.412Z,3.00
2022-09-13T08:18:52.692Z,3.47
2022-09-13T08:21:19.518Z,2.93
2022-09-13T08:23:46.302Z,3.00
2022-09-13T08:26:13.220Z,3.30
2022-09-13T08:28:40.608Z,3.00
2022-09-13T08:31:12.077Z,2.97
2022-09-13T08:33:41.004Z,3.23
2022-09-13T08:39:01.075Z,3.23
2022-09-13T08:41:45.015Z,3.67
2022-09-13T08:44:31.211Z,3.40
2022-09-13T08:47:04.629Z,3.90
2022-09-13T08:49:36.138Z,3.47
2022-09-13T08:52:13.154Z,3.93
2022-09-13T08:54:39.651Z,3.00
2022-09-13T08:57:34.241Z,6.53
2022-09-13T09:00:14.074Z,3.90
2022-09-13T09:02:51.882Z,3.73
2022-09-13T09:05:21.813Z,3.57
2022-09-13T09:07:52.503Z,4.57
2022-09-13T09:10:22.811Z,4.40
2022-09-13T09:13:03.577Z,4.93
2022-09-13T09:15:37.745Z,4.17
2022-09-13T09:18:21.330Z,4.00
2022-09-13T09:20:50.331Z,3.47
2022-09-13T09:23:23.045Z,4.20
2022-09-13T09:26:15.125Z,4.30
2022-09-13T09:28:41.939Z,4.27
2022-09-13T09:31:20.739Z,7.30
2022-09-13T09:34:23.540Z,4.73
2022-09-13T09:37:08.474Z,4.53
2022-09-13T09:39:39.365Z,4.50
2022-09-13T09:42:18.426Z,3.97
2022-09-13T09:45:03.721Z,4.37
2022-09-13T09:47:34.417Z,3.80
2022-09-13T09:50:14.229Z,4.40
2022-09-13T09:52:44.987Z,4.77
2022-09-13T09:55:29.735Z,4.23
2022-09-13T09:58:02.521Z,4.20
2022-09-13T10:00:32.250Z,4.47
2022-09-13T10:03:17.698Z,4.67
2022-09-13T10:05:44.518Z,4.53
2022-09-13T10:08:28.862Z,5.73
2022-09-13T10:10:57.568Z,5.70
2022-09-13T10:13:26.501Z,5.63
2022-09-13T10:16:07.762Z,6.07
2022-09-13T10:18:44.957Z,5.70
2022-09-13T10:21:19.998Z,7.67
2022-09-13T10:23:50.948Z,9.73
2022-09-13T10:26:26.431Z,5.80
2022-09-13T10:29:10.276Z,5.37
2022-09-13T10:31:39.136Z,5.67
2022-09-13T10:34:06.763Z,5.27
2022-09-13T10:36:51.691Z,5.10
2022-09-13T10:39:21.855Z,4.90
2022-09-13T10:41:57.369Z,6.10
2022-09-13T10:44:27.202Z,4.70
2022-09-13T10:46:54.019Z,4.53
2022-09-13T10:49:40.597Z,4.90
2022-09-13T10:52:43.556Z,5.07
2022-09-13T10:55:19.181Z,5.00
2022-09-13T10:57:48.149Z,4.43
2022-09-13T11:00:19.197Z,4.20
2022-09-13T11:03:13.991Z,3.80
2022-09-13T11:05:56.197Z,4.53
2022-09-13T11:08:53.601Z,5.03
2022-09-13T11:11:23.349Z,5.43
2022-09-13T11:14:21.029Z,5.40
2022-09-13T11:16:59.864Z,6.17
2022-09-13T11:19:54.053Z,6.07
2022-09-13T11:22:41.702Z,5.73
2022-09-13T11:25:26.419Z,5.90
2022-09-13T11:28:33.059Z,5.00
2022-09-13T11:31:23.757Z,4.70
2022-09-13T11:33:57.283Z,6.43
2022-09-13T11:36:48.422Z,8.83
2022-09-13T11:39:31.331Z,5.30
2022-09-13T11:42:24.087Z,4.17
2022-09-13T11:45:19.355Z,4.50
2022-09-13T11:48:03.020Z,5.43
2022-09-13T11:50:37.493Z,5.20
2022-09-13T11:53:30.056Z,4.80
2022-09-13T11:56:02.566Z,4.97
2022-09-13T11:58:48.070Z,5.67
2022-09-13T12:01:20.550Z,4.80
2022-09-13T12:03:57.951Z,5.17
2022-09-13T12:06:39.794Z,6.03
2022-09-13T12:09:10.470Z,4.40
2022-09-13T12:11:40.265Z,5.90
2022-09-13T12:14:11.881Z,5.73
2022-09-13T12:16:41.938Z,4.63
2022-09-13T12:19:16.458Z,4.97
2022-09-13T12:21:44.508Z,4.43
2022-09-13T12:24:24.397Z,5.10
2022-09-13T12:26:59.927Z,5.10
2022-09-13T12:29:50.869Z,5.97
2022-09-13T12:32:18.347Z,6.00
2022-09-13T12:35:01.827Z,5.97
2022-09-13T12:37:41.777Z,6.23
2022-09-13T12:40:36.341Z,5.67
2022-09-13T12:43:30.805Z,6.70
2022-09-13T12:46:04.130Z,4.50
2022-09-13T12:48:36.913Z,5.93
2022-09-13T12:51:26.854Z,4.90
2022-09-13T12:54:32.003Z,5.43
2022-09-13T12:57:18.030Z,5.53
2022-09-13T13:00:11.833Z,6.20
2022-09-13T13:02:54.361Z,4.90
2022-09-13T13:05:28.508Z,5.10
2022-09-13T13:08:17.862Z,6.10
2022-09-13T13:10:44.462Z,5.13
2022-09-13T13:13:13.801Z,5.50
2022-09-13T13:15:47.826Z,4.27
2022-09-13T13:18:43.292Z,4.63
2022-09-13T13:21:22.439Z,5.43
2022-09-13T13:24:15.008Z,5.27
2022-09-13T13:26:56.012Z,4.73
2022-09-13T13:29:24.249Z,4.73
2022-09-13T13:32:04.103Z,5.30
2022-09-13T13:34:47.180Z,5.20
2022-09-13T13:37:18.640Z,5.17
2022-09-13T13:39:47.207Z,5.03
2022-09-13T13:42:27.218Z,5.10
2022-09-13T13:44:53.906Z,6.00
2022-09-13T13:47:20.413Z,6.20
2022-09-13T13:50:17.193Z,5.07
2022-09-13T13:52:49.722Z,5.70
2022-09-13T13:55:40.457Z,5.80
2022-09-13T13:58:19.334Z,5.87
2022-09-13T14:00:49.194Z,6.07
2022-09-13T14:03:30.972Z,8.03
2022-09-13T14:06:12.579Z,7.27
2022-09-13T14:08:45.022Z,6.10
2022-09-13T14:11:28.753Z,5.17
2022-09-13T14:14:10.255Z,6.00
2022-09-13T14:16:58.776Z,5.57
2022-09-13T14:19:34.837Z,7.30
2022-09-13T14:22:14.055Z,7.03
2022-09-13T14:24:43.371Z,6.37
2022-09-13T14:27:19.352Z,5.93
2022-09-13T14:29:48.134Z,7.43
2022-09-13T14:32:19.082Z,8.87
2022-09-13T14:34:58.488Z,5.63
2022-09-13T14:37:31.054Z,5.43
2022-09-13T14:40:04.330Z,5.70
2022-09-13T14:42:42.702Z,5.70
2022-09-13T14:45:14.491Z,5.00
2022-09-13T14:47:49.638Z,6.13
2022-09-13T14:50:19.436Z,5.13
2022-09-13T14:52:50.725Z,4.67
2022-09-13T14:55:22.384Z,6.10
2022-09-13T14:57:52.912Z,5.40
2022-09-13T15:00:22.221Z,4.80
2022-09-13T15:02:54.164Z,4.50
2022-09-13T15:05:23.259Z,5.43
2022-09-13T15:07:49.803Z,5.00
2022-09-13T15:10:28.758Z,5.07
2022-09-13T15:12:55.332Z,4.93
2022-09-13T15:15:26.558Z,16.20
2022-09-13T15:17:57.142Z,5.70
2022-09-13T15:20:26.145Z,5.60
2022-09-13T15:22:53.871Z,5.77
2022-09-13T15:25:26.018Z,5.30
2022-09-13T15:27:53.096Z,7.17
2022-09-13T15:30:40.003Z,10.63
2022-09-13T15:33:12.749Z,5.40
2022-09-13T15:35:42.185Z,6.13
2022-09-13T15:38:30.338Z,5.73
2022-09-13T15:41:19.214Z,5.47
2022-09-13T15:43:48.765Z,5.47
2022-09-13T15:46:16.168Z,6.00
2022-09-13T15:48:51.337Z,5.50
2022-09-13T15:51:18.343Z,5.20
2022-09-13T15:53:45.733Z,5.77
2022-09-13T15:56:40.154Z,5.87
2022-09-13T15:59:06.870Z,4.80
2022-09-13T16:01:33.482Z,5.23
2022-09-13T16:04:04.076Z,10.03
2022-09-13T16:06:30.754Z,6.20
2022-09-13T16:08:57.515Z,4.80
2022-09-13T16:11:24.104Z,5.43
2022-09-13T16:13:50.517Z,6.30
2022-09-13T16:16:17.013Z,5.43
2022-09-13T16:18:43.747Z,5.67
2022-09-13T16:21:10.370Z,4.77
2022-09-13T16:23:37.015Z,5.90
2022-09-13T16:26:05.090Z,5.90
2022-09-13T16:28:31.564Z,5.83
2022-09-13T16:30:58.208Z,4.97
2022-09-13T16:33:24.628Z,5.87
2022-09-13T16:35:51.152Z,6.80
2022-09-13T16:38:18.253Z,5.47
2022-09-13T16:40:45.177Z,5.60
2022-09-13T16:43:12.893Z,5.60
2022-09-13T16:45:40.948Z,5.00
2022-09-13T16:48:08.382Z,5.90
2022-09-13T16:50:36.164Z,4.90
2022-09-13T16:53:02.760Z,13.90
2022-09-13T16:55:30.381Z,21.77
2022-09-13T16:57:56.948Z,5.97
2022-09-13T17:00:28.574Z,5.63
2022-09-13T17:02:56.279Z,4.93
2022-09-13T17:05:23.926Z,5.23
2022-09-13T17:07:51.806Z,4.83
2022-09-13T17:10:18.620Z,4.27
2022-09-13T17:12:45.384Z,4.07
2022-09-13T17:15:11.872Z,4.73
2022-09-13T17:17:38.339Z,5.50
2022-09-13T17:20:09.453Z,5.40
2022-09-13T17:22:36.968Z,4.40
2022-09-13T17:25:04.475Z,4.43
2022-09-13T17:27:30.954Z,4.93
2022-09-13T17:29:57.667Z,4.73
2022-09-13T17:32:24.164Z,4.70
2022-09-13T17:34:50.766Z,4.73
2022-09-13T17:37:17.426Z,4.67
2022-09-13T17:39:44.022Z,4.70
2022-09-13T17:42:10.566Z,5.30
2022-09-13T17:44:37.283Z,5.37
2022-09-13T17:47:04.245Z,5.03
2022-09-13T17:49:30.877Z,5.43
2022-09-13T17:51:57.944Z,5.50
2022-09-13T17:54:26.152Z,4.17
2022-09-13T17:56:52.766Z,4.10
2022-09-13T17:59:20.661Z,4.93
2022-09-13T18:01:51.184Z,4.97
2022-09-13T18:04:19.818Z,4.60
2022-09-13T18:06:46.929Z,4.50
2022-09-13T18:09:14.457Z,4.67
2022-09-13T18:11:41.352Z,5.23
2022-09-13T18:14:12.359Z,5.63
2022-09-13T18:16:39.013Z,4.43
2022-09-13T18:19:05.910Z,4.43
2022-09-13T18:21:32.488Z,4.80
2022-09-13T18:24:00.085Z,5.00
2022-09-13T18:26:28.094Z,4.00
2022-09-13T18:28:56.276Z,3.97
2022-09-13T18:31:23.723Z,3.83
2022-09-13T18:33:55.782Z,3.80
2022-09-13T18:36:22.813Z,4.13
2022-09-13T18:38:50.005Z,3.00
2022-09-13T18:41:19.477Z,3.37
2022-09-13T18:43:49.696Z,3.20
2022-09-13T18:46:23.691Z,3.20
2022-09-13T18:48:53.406Z,3.13
2022-09-13T18:51:25.851Z,3.27
2022-09-13T18:53:52.869Z,4.93
2022-09-13T18:56:20.775Z,3.70
2022-09-13T18:58:47.843Z,3.43
2022-09-13T19:01:22.373Z,3.20
2022-09-13T19:03:57.304Z,3.33
2022-09-13T19:06:26.327Z,3.33
2022-09-13T19:08:54.411Z,3.03
2022-09-13T19:11:44.820Z,2.90
2022-09-13T19:14:08.645Z,2.87
2022-09-13T19:16:35.722Z,2.87
2022-09-13T19:19:02.533Z,3.10
2022-09-13T19:21:33.364Z,3.30
2022-09-13T19:24:04.015Z,3.10
2022-09-13T19:26:37.215Z,3.20
2022-09-13T19:29:10.039Z,3.33
2022-09-13T19:31:39.246Z,3.13
2022-09-13T19:34:06.861Z,2.80
2022-09-13T19:36:35.286Z,2.90
2022-09-13T19:39:02.374Z,2.97
2022-09-13T19:41:30.169Z,2.80
2022-09-13T19:44:01.185Z,2.40
2022-09-13T19:46:31.932Z,2.80
2022-09-13T19:48:59.512Z,2.80
2022-09-13T19:51:31.923Z,2.40
2022-09-13T19:53:59.631Z,2.10
2022-09-13T19:56:29.097Z,2.00
2022-09-13T19:58:55.606Z,2.00
2022-09-13T20:01:25.090Z,2.20
2022-09-13T20:03:53.348Z,2.07
2022-09-13T20:06:20.436Z,1.80
2022-09-13T20:08:47.306Z,1.83
2022-09-13T20:11:16.449Z,1.90
2022-09-13T20:13:43.810Z,1.80
2022-09-13T20:16:12.175Z,1.50
2022-09-13T20:18:39.769Z,1.40
2022-09-13T20:21:08.776Z,1.40
2022-09-13T20:23:36.856Z,1.40
2022-09-13T20:26:04.368Z,1.50
2022-09-13T20:28:31.892Z,1.10
2022-09-13T20:31:02.607Z,1.37
2022-09-13T20:33:29.168Z,1.40
2022-09-13T20:35:55.686Z,1.40
2022-09-13T20:38:22.449Z,1.30
2022-09-13T20:40:48.932Z,1.10
2022-09-13T20:43:15.720Z,1.17
2022-09-13T20:45:42.182Z,1.33
2022-09-13T20:48:08.920Z,1.03
2022-09-13T20:50:40.221Z,1.40
2022-09-13T20:53:06.825Z,1.20
2022-09-13T20:55:34.189Z,1.47
2022-09-13T20:58:01.590Z,2.10
2022-09-13T21:00:28.632Z,1.63
2022-09-13T21:02:55.220Z,1.37
2022-09-13T21:05:22.284Z,1.10
2022-09-13T21:08:07.320Z,1.20
2022-09-13T21:10:33.882Z,1.40
2022-09-13T21:13:01.418Z,1.30
2022-09-13T21:15:27.933Z,1.10
2022-09-13T21:17:54.344Z,1.37
2022-09-13T21:20:20.947Z,1.30
2022-09-13T21:22:48.237Z,1.30
2022-09-13T21:25:14.778Z,1.37
2022-09-13T21:27:45.108Z,1.50
2022-09-13T21:30:11.887Z,1.27
2022-09-13T21:32:38.341Z,1.40
2022-09-13T21:35:05.402Z,1.50
2022-09-13T21:37:31.828Z,1.10
2022-09-13T21:39:58.383Z,1.40
2022-09-13T21:42:25.393Z,1.40
2022-09-13T21:44:51.801Z,1.20
2022-09-13T21:47:18.239Z,1.50
2022-09-13T21:49:45.337Z,1.17
2022-09-13T21:52:12.550Z,1.30
2022-09-13T21:54:39.000Z,1.67
2022-09-13T21:57:06.355Z,1.07
2022-09-13T21:59:32.872Z,1.30
2022-09-13T22:02:00.067Z,1.23
2022-09-13T22:04:27.379Z,1.50
2022-09-13T22:06:54.467Z,1.50
2022-09-13T22:09:24.628Z,1.73
2022-09-13T22:11:51.228Z,1.97
2022-09-13T22:14:19.962Z,1.63
2022-09-13T22:16:46.812Z,1.80
2022-09-13T22:19:17.319Z,2.03
2022-09-13T22:21:46.206Z,1.60
2022-09-13T22:24:19.491Z,1.63
2022-09-13T22:26:47.485Z,2.00
2022-09-13T22:29:15.303Z,1.97
2022-09-13T22:31:44.019Z,2.00
2022-09-13T22:34:13.249Z,1.37
2022-09-13T22:36:40.024Z,1.97
2022-09-13T22:39:06.603Z,1.67
2022-09-13T22:41:33.855Z,1.40
2022-09-13T22:44:01.603Z,1.60
2022-09-13T22:46:33.640Z,1.70
2022-09-13T22:49:00.655Z,1.63
2022-09-13T22:51:27.784Z,1.40
2022-09-13T22:53:55.018Z,1.60
2022-09-13T22:56:26.939Z,1.53
2022-09-13T22:59:01.538Z,1.83
2022-09-13T23:01:29.039Z,1.90
2022-09-13T23:03:55.849Z,1.30
2022-09-13T23:06:24.158Z,1.63
2022-09-13T23:08:52.163Z,2.23
2022-09-13T23:11:22.647Z,1.57
2022-09-13T23:13:51.141Z,1.60
2022-09-13T23:16:22.967Z,2.50
2022-09-13T23:18:50.013Z,2.50
2022-09-13T23:21:21.121Z,1.70
2022-09-13T23:23:47.876Z,1.67
2022-09-13T23:26:17.689Z,2.10
2022-09-13T23:28:45.621Z,2.23
2022-09-13T23:31:21.238Z,1.77
2022-09-13T23:33:49.846Z,1.73
2022-09-13T23:36:19.392Z,1.80
2022-09-13T23:38:47.935Z,2.00
2022-09-13T23:41:16.385Z,1.90
2022-09-13T23:43:42.876Z,1.60
2022-09-13T23:46:09.649Z,1.70
2022-09-13T23:48:36.386Z,2.03
2022-09-13T23:51:08.225Z,1.53
2022-09-13T23:53:36.528Z,1.70
2022-09-13T23:56:03.843Z,1.70
2022-09-13T23:58:31.739Z,1.80
